Time;durP1;ratioP1;P1;durP2;ratioP2;P2;SDS_P1;SDS_P2;PMS_P1;PMS_P2;Temp;Humidity;BMP_temperature;BMP_pressure;BME280_temperature;BME280_humidity;BME280_pressure;Samples;Min_cycle;Max_cycle;Signal;HPM_P1;HPM_P2
2023/03/06 00:00:31;;;;;;;9.20;5.60;;;3.90;99.90;;;;;;5079582;28;20600;-81
2023/03/06 00:02:57;;;;;;;7.13;5.70;;;3.90;99.90;;;;;;5097588;28;20618;-81
2023/03/06 00:05:23;;;;;;;8.43;5.80;;;3.90;99.90;;;;;;5083514;28;20238;-82
2023/03/06 00:07:48;;;;;;;8.37;6.07;;;3.90;99.90;;;;;;5102608;28;20703;-81
2023/03/06 00:10:17;;;;;;;8.00;5.83;;;3.90;99.90;;;;;;5084084;28;20174;-81
2023/03/06 00:12:43;;;;;;;6.83;5.30;;;3.90;99.90;;;;;;5084150;28;20178;-81
2023/03/06 00:15:09;;;;;;;7.97;5.97;;;3.90;99.90;;;;;;5083633;28;20181;-81
2023/03/06 00:17:35;;;;;;;7.53;5.87;;;3.90;99.90;;;;;;5083407;28;20564;-81
2023/03/06 00:20:00;;;;;;;7.00;5.10;;;3.90;99.90;;;;;;5101872;28;20181;-81
2023/03/06 00:22:26;;;;;;;7.53;6.20;;;3.90;99.90;;;;;;5083625;28;20255;-81
2023/03/06 00:24:54;;;;;;;7.70;5.97;;;3.90;99.90;;;;;;5083555;28;20220;-81
2023/03/06 00:27:20;;;;;;;6.73;5.20;;;3.90;99.90;;;;;;5102321;28;20178;-81
2023/03/06 00:29:48;;;;;;;7.07;5.60;;;3.90;99.90;;;;;;5103326;28;20188;-81
2023/03/06 00:32:15;;;;;;;10.07;6.47;;;3.80;99.90;;;;;;5083874;28;20194;-81
2023/03/06 00:34:40;;;;;;;8.60;5.77;;;3.80;99.90;;;;;;5102476;28;20178;-81
2023/03/06 00:37:06;;;;;;;7.63;5.20;;;3.80;99.90;;;;;;5102551;28;20677;-81
2023/03/06 00:39:31;;;;;;;9.17;6.90;;;3.80;99.90;;;;;;5102301;28;20166;-81
2023/03/06 00:41:57;;;;;;;7.40;5.93;;;3.80;99.90;;;;;;5084642;28;20209;-82
2023/03/06 00:44:22;;;;;;;8.27;6.57;;;3.80;99.90;;;;;;5086783;28;20180;-82
2023/03/06 00:46:48;;;;;;;10.20;6.90;;;3.80;99.90;;;;;;5088964;28;20170;-81
2023/03/06 00:49:14;;;;;;;9.13;7.10;;;3.80;99.90;;;;;;5089199;28;20592;-82
2023/03/06 00:51:39;;;;;;;8.73;6.63;;;3.80;99.90;;;;;;5103949;28;20240;-82
2023/03/06 00:54:05;;;;;;;10.27;7.13;;;3.70;99.90;;;;;;5084515;28;20170;-81
2023/03/06 00:56:30;;;;;;;9.47;7.60;;;3.80;99.90;;;;;;5102270;28;20170;-82
2023/03/06 00:58:56;;;;;;;11.50;7.80;;;3.80;99.90;;;;;;5101209;28;20216;-82
2023/03/06 01:01:22;;;;;;;9.10;7.53;;;3.80;99.90;;;;;;5101975;28;20302;-82
2023/03/06 01:03:47;;;;;;;9.40;7.50;;;3.80;99.90;;;;;;5101216;28;20553;-82
2023/03/06 01:06:13;;;;;;;10.33;8.23;;;3.70;99.90;;;;;;5082843;28;20215;-81
2023/03/06 01:08:38;;;;;;;12.63;8.33;;;3.70;99.90;;;;;;5083178;28;20170;-82
2023/03/06 01:11:04;;;;;;;14.30;9.23;;;3.70;99.90;;;;;;5101209;28;20194;-82
2023/03/06 01:13:29;;;;;;;13.03;8.90;;;3.70;99.90;;;;;;5101175;28;20177;-84
2023/03/06 01:16:05;;;;;;;12.63;8.90;;;3.70;99.90;;;;;;5083007;28;20174;-81
2023/03/06 01:18:30;;;;;;;11.80;9.20;;;3.70;99.90;;;;;;5082765;28;20212;-81
2023/03/06 01:20:56;;;;;;;13.30;9.43;;;3.70;99.90;;;;;;5082495;28;20194;-81
2023/03/06 01:23:21;;;;;;;13.20;9.60;;;3.70;99.90;;;;;;5100792;28;20299;-81
2023/03/06 01:25:47;;;;;;;15.53;10.17;;;3.70;99.90;;;;;;5101507;28;20207;-82
2023/03/06 01:28:12;;;;;;;15.07;10.93;;;3.70;99.90;;;;;;5101317;28;20221;-83
2023/03/06 01:30:38;;;;;;;18.33;10.67;;;3.70;99.90;;;;;;5082488;28;20257;-82
2023/03/06 01:33:03;;;;;;;16.87;10.47;;;3.70;99.90;;;;;;5084184;28;20213;-82
2023/03/06 01:35:29;;;;;;;16.00;11.03;;;3.70;99.90;;;;;;5103247;28;20205;-83
2023/03/06 01:37:55;;;;;;;14.67;10.97;;;3.70;99.90;;;;;;5089165;28;20240;-82
2023/03/06 01:40:20;;;;;;;16.23;10.23;;;3.70;99.90;;;;;;5110996;28;20642;-82
2023/03/06 01:42:48;;;;;;;16.77;11.30;;;3.70;99.90;;;;;;5103541;28;20179;-82
2023/03/06 01:45:13;;;;;;;15.77;10.27;;;3.70;99.90;;;;;;5083880;28;20174;-82
2023/03/06 01:47:39;;;;;;;16.43;11.90;;;3.70;99.90;;;;;;5101908;28;20181;-82
2023/03/06 01:50:07;;;;;;;17.37;11.73;;;3.70;99.90;;;;;;5100767;28;20641;-83
2023/03/06 01:52:50;;;;;;;18.23;12.37;;;3.70;99.90;;;;;;5101151;28;20202;-82
2023/03/06 01:55:24;;;;;;;19.27;12.17;;;3.60;99.90;;;;;;5101105;28;20174;-82
2023/03/06 01:57:53;;;;;;;16.20;11.53;;;3.70;99.90;;;;;;5082923;28;20213;-82
2023/03/06 02:00:22;;;;;;;16.47;11.97;;;3.60;99.90;;;;;;5100601;28;20189;-82
2023/03/06 02:02:55;;;;;;;15.77;11.77;;;3.60;99.90;;;;;;5083946;28;20197;-82
2023/03/06 02:05:21;;;;;;;20.00;12.53;;;3.60;99.90;;;;;;5083748;28;20170;-82
2023/03/06 02:07:47;;;;;;;20.03;13.07;;;3.50;99.90;;;;;;5116826;28;20190;-82
2023/03/06 02:10:14;;;;;;;20.93;12.60;;;3.50;99.90;;;;;;5118611;28;20177;-81
2023/03/06 02:12:42;;;;;;;18.97;11.80;;;3.50;99.90;;;;;;5108696;28;20189;-82
2023/03/06 02:15:09;;;;;;;20.80;12.93;;;3.50;99.90;;;;;;5100144;28;20555;-82
2023/03/06 02:17:35;;;;;;;20.00;13.27;;;3.50;99.90;;;;;;5099675;28;20240;-82
2023/03/06 02:20:21;;;;;;;18.97;13.00;;;3.50;99.90;;;;;;5081245;28;20174;-81
2023/03/06 02:23:10;;;;;;;18.10;12.53;;;3.50;99.90;;;;;;5081298;28;20174;-82
2023/03/06 02:25:44;;;;;;;16.73;12.27;;;3.50;99.90;;;;;;5100177;28;20614;-82
2023/03/06 02:28:13;;;;;;;18.80;12.97;;;3.50;99.90;;;;;;5080589;28;20298;-82
2023/03/06 02:30:40;;;;;;;17.40;12.57;;;3.50;99.90;;;;;;5099010;28;20226;-82
2023/03/06 02:33:06;;;;;;;19.60;12.80;;;3.50;99.90;;;;;;5099526;28;20186;-82
2023/03/06 02:35:34;;;;;;;18.30;13.33;;;3.40;99.90;;;;;;5081741;28;20212;-82
2023/03/06 02:38:13;;;;;;;22.50;13.77;;;3.50;99.90;;;;;;5099179;28;20207;-82
2023/03/06 02:40:42;;;;;;;22.33;13.10;;;3.50;99.90;;;;;;5099562;28;20193;-82
2023/03/06 02:43:09;;;;;;;21.87;13.27;;;3.50;99.90;;;;;;5080924;28;20174;-82
2023/03/06 02:45:37;;;;;;;20.87;13.93;;;3.40;99.90;;;;;;5099020;28;20171;-82
2023/03/06 02:48:03;;;;;;;20.03;13.30;;;3.50;99.90;;;;;;5080713;28;20182;-82
2023/03/06 02:50:29;;;;;;;25.20;14.83;;;3.40;99.90;;;;;;5080735;28;20668;-82
2023/03/06 02:52:55;;;;;;;21.70;14.63;;;3.50;99.90;;;;;;5099659;28;20170;-82
2023/03/06 02:55:20;;;;;;;24.13;15.57;;;3.50;99.90;;;;;;5081745;28;20181;-82
2023/03/06 02:57:46;;;;;;;22.77;14.27;;;3.50;99.90;;;;;;5099495;28;20257;-82
2023/03/06 03:00:13;;;;;;;20.57;13.97;;;3.50;99.90;;;;;;5100142;28;20174;-82
2023/03/06 03:02:39;;;;;;;21.67;14.50;;;3.40;99.90;;;;;;5081192;28;20184;-81
2023/03/06 03:05:05;;;;;;;23.13;14.33;;;3.50;99.90;;;;;;5081282;28;20272;-82
2023/03/06 03:07:30;;;;;;;22.67;14.67;;;3.50;99.90;;;;;;5099884;28;20207;-82
2023/03/06 03:09:56;;;;;;;23.00;14.80;;;3.50;99.90;;;;;;5081590;28;20190;-80
2023/03/06 03:12:22;;;;;;;18.30;13.10;;;3.50;99.90;;;;;;5081446;28;20198;-82
2023/03/06 03:14:47;;;;;;;19.77;13.10;;;3.50;99.90;;;;;;5098425;28;20170;-82
2023/03/06 03:17:13;;;;;;;17.93;12.20;;;3.50;99.90;;;;;;5080053;28;20216;-82
2023/03/06 03:19:39;;;;;;;21.17;13.37;;;3.50;99.90;;;;;;5081340;28;20166;-82
2023/03/06 03:22:05;;;;;;;23.43;13.80;;;3.50;99.90;;;;;;5080748;28;20198;-82
2023/03/06 03:24:30;;;;;;;18.33;12.57;;;3.50;99.90;;;;;;5098852;28;20174;-82
2023/03/06 03:26:56;;;;;;;20.10;12.87;;;3.50;99.90;;;;;;5098613;28;20174;-82
2023/03/06 03:29:21;;;;;;;16.77;11.80;;;3.50;99.90;;;;;;5079857;28;20641;-82
2023/03/06 03:31:47;;;;;;;18.33;12.27;;;3.40;99.90;;;;;;5098264;28;20721;-82
2023/03/06 03:34:13;;;;;;;16.37;11.40;;;3.50;99.90;;;;;;5098932;28;20171;-82
2023/03/06 03:36:39;;;;;;;19.80;12.73;;;3.50;99.90;;;;;;5081044;28;20167;-82
2023/03/06 03:39:05;;;;;;;19.83;12.43;;;3.50;99.90;;;;;;5098540;28;20221;-81
2023/03/06 03:41:32;;;;;;;15.37;11.10;;;3.50;99.90;;;;;;5081779;28;20186;-82
2023/03/06 03:43:58;;;;;;;19.30;12.40;;;3.40;99.90;;;;;;5099546;28;20224;-81
2023/03/06 03:46:24;;;;;;;20.20;12.40;;;3.40;99.90;;;;;;5081501;28;20174;-82
2023/03/06 03:48:50;;;;;;;17.63;11.97;;;3.70;99.90;;;;;;5099919;28;20181;-82
2023/03/06 03:51:15;;;;;;;16.63;11.67;;;3.30;99.90;;;;;;5100168;28;20194;-82
2023/03/06 03:53:43;;;;;;;19.97;12.63;;;3.30;99.90;;;;;;5084081;28;20297;-82
2023/03/06 03:56:09;;;;;;;17.80;11.77;;;3.30;99.90;;;;;;5090588;28;20177;-82
2023/03/06 03:58:35;;;;;;;21.17;13.33;;;3.40;99.90;;;;;;5104422;28;20194;-82
2023/03/06 04:01:00;;;;;;;18.67;12.20;;;3.30;99.90;;;;;;5098088;28;20186;-82
2023/03/06 04:03:26;;;;;;;16.93;12.37;;;3.30;99.90;;;;;;5079827;28;20194;-82
2023/03/06 04:05:53;;;;;;;17.87;12.03;;;3.30;99.90;;;;;;5080883;28;20185;-82
2023/03/06 04:08:19;;;;;;;21.00;12.77;;;3.30;99.90;;;;;;5098195;28;20220;-82
2023/03/06 04:10:45;;;;;;;21.33;14.10;;;3.30;99.90;;;;;;5080753;28;20194;-82
2023/03/06 04:13:10;;;;;;;21.83;12.60;;;3.30;99.90;;;;;;5080254;28;20524;-82
2023/03/06 04:15:36;;;;;;;21.17;12.50;;;3.30;99.90;;;;;;5099143;28;20177;-82
2023/03/06 04:18:01;;;;;;;20.83;13.17;;;3.30;99.90;;;;;;5080502;28;20292;-82
2023/03/06 04:20:27;;;;;;;20.30;13.00;;;3.30;99.90;;;;;;5100057;28;20190;-82
2023/03/06 04:22:53;;;;;;;20.77;12.53;;;3.30;99.90;;;;;;5100067;28;20198;-82
2023/03/06 04:25:18;;;;;;;20.97;13.67;;;3.30;99.90;;;;;;5083613;28;20173;-82
2023/03/06 04:27:44;;;;;;;17.90;13.13;;;3.40;99.90;;;;;;5081726;28;20281;-82
2023/03/06 04:30:10;;;;;;;18.87;12.33;;;3.50;99.90;;;;;;5099133;28;20224;-82
2023/03/06 04:32:36;;;;;;;20.47;12.47;;;3.30;99.90;;;;;;5099647;28;20178;-82
2023/03/06 04:35:03;;;;;;;17.17;11.37;;;3.30;99.90;;;;;;5099817;28;20186;-82
2023/03/06 04:37:28;;;;;;;17.30;11.83;;;3.30;99.90;;;;;;5088888;28;20217;-83
2023/03/06 04:39:55;;;;;;;19.50;12.60;;;3.30;99.90;;;;;;5107929;28;20226;-82
2023/03/06 04:42:21;;;;;;;19.53;13.03;;;3.30;99.90;;;;;;5086943;28;20258;-83
2023/03/06 04:44:46;;;;;;;19.40;12.23;;;3.30;99.90;;;;;;5098562;28;20198;-82
2023/03/06 04:47:12;;;;;;;20.63;12.53;;;3.30;99.90;;;;;;5080288;28;20536;-82
2023/03/06 04:49:38;;;;;;;21.17;13.57;;;3.30;99.90;;;;;;5098461;28;20206;-82
2023/03/06 04:52:04;;;;;;;17.57;11.57;;;3.30;99.90;;;;;;5083724;28;20209;-82
2023/03/06 04:54:29;;;;;;;20.83;12.40;;;3.30;99.90;;;;;;5102307;28;20630;-82
2023/03/06 04:56:55;;;;;;;20.70;12.53;;;3.20;99.90;;;;;;5083404;28;20190;-82
2023/03/06 04:59:20;;;;;;;20.13;13.00;;;3.20;99.90;;;;;;5101377;28;20177;-81
2023/03/06 05:01:46;;;;;;;20.13;12.97;;;3.30;99.90;;;;;;5083417;28;20204;-83
2023/03/06 05:04:11;;;;;;;20.07;13.13;;;3.20;99.90;;;;;;5083180;28;20174;-82
2023/03/06 05:06:37;;;;;;;18.67;13.03;;;3.20;99.90;;;;;;5101703;28;20202;-82
2023/03/06 05:09:03;;;;;;;17.90;12.97;;;3.20;99.90;;;;;;5101206;28;20186;-82
2023/03/06 05:11:28;;;;;;;21.10;12.47;;;3.20;99.90;;;;;;5101911;28;20190;-83
2023/03/06 05:13:54;;;;;;;20.00;13.00;;;3.20;99.90;;;;;;5101451;28;20198;-82
2023/03/06 05:16:19;;;;;;;19.50;13.47;;;3.20;99.90;;;;;;5083623;28;20178;-83
2023/03/06 05:18:45;;;;;;;18.67;13.43;;;3.20;99.90;;;;;;5101709;28;20217;-82
2023/03/06 05:21:10;;;;;;;21.97;12.40;;;3.20;99.90;;;;;;5083381;28;20261;-82
2023/03/06 05:23:40;;;;;;;19.00;12.97;;;3.20;99.90;;;;;;5101577;28;20205;-82
2023/03/06 05:26:13;;;;;;;23.77;13.43;;;3.10;99.90;;;;;;5083333;28;20205;-83
2023/03/06 05:28:38;;;;;;;20.37;14.33;;;3.20;99.90;;;;;;5101127;28;20262;-83
2023/03/06 05:31:04;;;;;;;21.23;12.47;;;3.10;99.90;;;;;;5101816;28;20222;-83
2023/03/06 05:33:32;;;;;;;21.87;13.30;;;3.10;99.90;;;;;;5082875;28;20175;-83
2023/03/06 05:35:57;;;;;;;21.17;13.80;;;3.10;99.90;;;;;;5083760;28;20265;-83
2023/03/06 05:38:23;;;;;;;23.87;14.23;;;3.10;99.90;;;;;;5100669;28;20233;-82
2023/03/06 05:40:48;;;;;;;18.87;12.07;;;3.10;99.90;;;;;;5100135;28;20220;-84
2023/03/06 05:43:14;;;;;;;20.17;12.87;;;3.10;99.90;;;;;;5099657;28;20220;-85
2023/03/06 05:45:40;;;;;;;23.93;14.43;;;3.00;99.90;;;;;;5099401;28;20626;-85
2023/03/06 05:48:06;;;;;;;23.17;13.03;;;3.00;99.90;;;;;;5081660;28;20245;-84
2023/03/06 05:50:32;;;;;;;24.13;12.87;;;3.00;99.90;;;;;;5080834;28;20202;-84
2023/03/06 05:52:57;;;;;;;23.13;13.63;;;3.00;99.90;;;;;;5082258;28;20275;-84
2023/03/06 05:55:23;;;;;;;22.43;12.57;;;3.00;99.90;;;;;;5082883;28;20283;-85
2023/03/06 05:57:49;;;;;;;22.40;14.33;;;3.00;99.90;;;;;;5082658;28;20572;-84
2023/03/06 06:00:16;;;;;;;18.23;12.73;;;3.00;99.90;;;;;;5102798;28;20680;-84
2023/03/06 06:02:42;;;;;;;22.23;12.50;;;3.00;99.90;;;;;;5100657;28;20197;-80
2023/03/06 06:05:09;;;;;;;19.30;11.90;;;3.00;99.90;;;;;;5100720;28;20173;-80
2023/03/06 06:07:34;;;;;;;20.13;12.07;;;3.00;99.90;;;;;;5087532;28;20238;-80
2023/03/06 06:10:00;;;;;;;23.50;12.40;;;3.00;99.90;;;;;;5102637;28;20194;-80
2023/03/06 06:12:26;;;;;;;21.10;12.60;;;3.00;99.90;;;;;;5084806;28;20357;-80
2023/03/06 06:14:52;;;;;;;23.70;12.73;;;3.00;99.90;;;;;;5100662;28;20645;-80
2023/03/06 06:17:18;;;;;;;21.03;12.83;;;3.00;99.90;;;;;;5095050;28;20248;-80
2023/03/06 06:19:43;;;;;;;20.83;12.67;;;2.90;99.90;;;;;;5080949;28;20190;-80
2023/03/06 06:22:10;;;;;;;22.47;11.97;;;3.00;99.90;;;;;;5062191;28;20574;-80
2023/03/06 06:24:36;;;;;;;18.77;11.90;;;3.00;99.90;;;;;;5057503;28;20179;-79
2023/03/06 06:27:02;;;;;;;22.60;12.80;;;3.00;99.90;;;;;;5057536;28;20289;-80
2023/03/06 06:29:27;;;;;;;20.53;12.00;;;2.90;99.90;;;;;;5058566;28;20179;-79
2023/03/06 06:31:53;;;;;;;17.10;11.47;;;2.90;99.90;;;;;;5057565;28;20283;-79
2023/03/06 06:34:19;;;;;;;19.67;12.07;;;3.00;99.90;;;;;;5057715;28;20190;-79
2023/03/06 06:36:46;;;;;;;23.40;13.13;;;3.00;99.90;;;;;;5056783;28;20198;-78
2023/03/06 06:39:15;;;;;;;22.03;12.77;;;3.00;99.90;;;;;;5056574;28;20186;-79
2023/03/06 06:41:41;;;;;;;21.60;13.23;;;3.00;99.90;;;;;;5057575;28;20197;-79
2023/03/06 06:44:10;;;;;;;19.90;11.83;;;3.00;99.90;;;;;;5060509;28;20175;-81
2023/03/06 06:46:36;;;;;;;26.27;15.07;;;3.00;99.90;;;;;;5061808;28;20170;-82
2023/03/06 06:49:02;;;;;;;25.20;14.67;;;3.00;99.90;;;;;;5079604;28;20270;-82
2023/03/06 06:51:32;;;;;;;26.37;14.50;;;3.00;99.90;;;;;;5061323;28;20254;-82
2023/03/06 06:54:00;;;;;;;28.37;14.57;;;3.10;99.90;;;;;;5061237;28;20182;-82
2023/03/06 06:56:26;;;;;;;25.50;14.93;;;3.10;99.90;;;;;;5061555;28;20170;-81
2023/03/06 06:58:52;;;;;;;29.50;15.67;;;3.10;99.90;;;;;;5061919;28;20209;-82
2023/03/06 07:01:18;;;;;;;29.10;15.90;;;3.10;99.90;;;;;;5062292;28;20219;-81
2023/03/06 07:03:44;;;;;;;27.50;15.63;;;3.10;99.90;;;;;;5063869;28;20175;-82
2023/03/06 07:06:09;;;;;;;29.83;16.70;;;3.10;99.90;;;;;;5060086;28;20239;-82
2023/03/06 07:08:35;;;;;;;27.80;15.57;;;3.10;99.90;;;;;;5060844;28;20236;-82
2023/03/06 07:11:06;;;;;;;27.20;14.77;;;3.20;99.90;;;;;;5079117;28;20195;-82
2023/03/06 07:13:32;;;;;;;28.80;14.23;;;3.20;99.90;;;;;;5079029;28;20266;-83
2023/03/06 07:15:58;;;;;;;26.50;15.27;;;3.20;99.90;;;;;;5060830;28;20649;-82
2023/03/06 07:18:23;;;;;;;25.33;14.57;;;3.20;99.90;;;;;;5060695;28;20221;-82
2023/03/06 07:20:49;;;;;;;25.97;15.30;;;3.20;99.90;;;;;;5079291;28;20195;-81
2023/03/06 07:23:14;;;;;;;26.90;15.07;;;3.20;99.90;;;;;;5060615;28;20183;-82
2023/03/06 07:25:40;;;;;;;26.10;14.63;;;3.30;99.90;;;;;;5078925;28;20630;-82
2023/03/06 07:28:06;;;;;;;29.20;15.10;;;3.30;99.90;;;;;;5078517;28;20179;-81
2023/03/06 07:30:31;;;;;;;24.70;14.23;;;3.30;99.90;;;;;;5077865;28;20190;-81
2023/03/06 07:32:58;;;;;;;23.50;13.70;;;3.30;99.90;;;;;;5078320;28;20178;-81
2023/03/06 07:35:24;;;;;;;28.20;14.60;;;3.30;99.90;;;;;;5078699;28;20261;-81
2023/03/06 07:37:50;;;;;;;24.43;13.63;;;3.40;99.90;;;;;;5078856;28;20307;-81
2023/03/06 07:40:16;;;;;;;21.57;12.60;;;3.40;99.90;;;;;;5078324;28;20167;-81
2023/03/06 07:42:42;;;;;;;24.90;11.83;;;3.40;99.90;;;;;;5077736;28;20175;-81
2023/03/06 07:45:08;;;;;;;20.53;11.67;;;3.40;99.90;;;;;;5077513;28;20171;-81
2023/03/06 07:47:34;;;;;;;21.00;12.60;;;3.40;99.90;;;;;;5058877;28;20186;-81
2023/03/06 07:50:02;;;;;;;19.13;11.37;;;3.40;99.90;;;;;;5077256;28;20252;-81
2023/03/06 07:52:28;;;;;;;19.10;11.53;;;3.50;99.90;;;;;;5059600;28;20196;-81
2023/03/06 07:54:53;;;;;;;21.40;11.80;;;3.50;99.90;;;;;;5078701;28;20226;-81
2023/03/06 07:57:19;;;;;;;21.13;11.97;;;3.40;99.90;;;;;;5059293;28;20724;-83
2023/03/06 07:59:44;;;;;;;25.07;13.57;;;3.50;99.90;;;;;;5060100;28;20178;-81
2023/03/06 08:02:11;;;;;;;21.20;12.23;;;3.50;99.90;;;;;;5078107;28;20712;-81
2023/03/06 08:04:37;;;;;;;24.43;14.17;;;3.50;99.90;;;;;;5077774;28;20182;-82
2023/03/06 08:07:02;;;;;;;23.60;13.40;;;3.60;99.90;;;;;;5077886;28;20167;-82
2023/03/06 08:09:29;;;;;;;24.20;13.73;;;3.70;99.90;;;;;;5078742;28;20195;-81
2023/03/06 08:11:55;;;;;;;26.80;14.33;;;3.70;99.90;;;;;;5078108;28;20283;-81
2023/03/06 08:14:20;;;;;;;26.03;14.97;;;3.70;99.90;;;;;;5079028;28;20661;-81
2023/03/06 08:16:47;;;;;;;25.70;15.20;;;3.70;99.90;;;;;;5079169;28;20185;-81
2023/03/06 08:19:14;;;;;;;27.77;14.70;;;3.70;99.90;;;;;;5060274;28;20200;-81
2023/03/06 08:21:39;;;;;;;27.97;15.30;;;3.70;99.90;;;;;;5079106;28;20191;-81
2023/03/06 08:24:05;;;;;;;26.57;15.27;;;3.70;99.90;;;;;;5079799;28;20171;-81
2023/03/06 08:26:31;;;;;;;31.03;15.83;;;3.70;99.90;;;;;;5065606;28;20175;-81
2023/03/06 08:28:58;;;;;;;32.30;17.80;;;3.80;99.90;;;;;;5093552;28;20245;-82
2023/03/06 08:31:33;;;;;;;30.97;17.13;;;3.80;99.90;;;;;;5094860;28;20175;-82
2023/03/06 08:34:01;;;;;;;30.47;18.03;;;3.80;99.90;;;;;;5076498;28;20181;-82
2023/03/06 08:36:27;;;;;;;29.33;17.80;;;3.80;99.90;;;;;;5064114;28;20183;-82
2023/03/06 08:38:53;;;;;;;34.00;19.70;;;3.90;99.90;;;;;;5063296;28;20198;-81
2023/03/06 08:41:19;;;;;;;36.53;19.73;;;3.90;99.90;;;;;;5081727;28;20252;-81
2023/03/06 08:43:46;;;;;;;37.70;18.63;;;3.90;99.90;;;;;;5062928;28;20262;-81
2023/03/06 08:46:11;;;;;;;37.63;20.63;;;3.90;99.90;;;;;;5081962;28;20178;-81
2023/03/06 08:48:37;;;;;;;32.63;19.43;;;3.90;99.90;;;;;;5063541;28;20258;-81
2023/03/06 08:51:03;;;;;;;40.10;21.03;;;3.90;99.90;;;;;;5082174;28;20194;-81
2023/03/06 08:53:29;;;;;;;36.23;20.60;;;3.90;99.90;;;;;;5080246;28;20175;-81
2023/03/06 08:55:55;;;;;;;34.37;19.23;;;3.90;99.90;;;;;;5062414;28;20228;-81
2023/03/06 08:58:20;;;;;;;35.93;20.37;;;3.90;99.90;;;;;;5081643;28;20226;-81
2023/03/06 09:00:46;;;;;;;42.13;21.87;;;3.80;99.90;;;;;;5062759;28;20195;-81
2023/03/06 09:03:12;;;;;;;34.23;19.27;;;3.90;99.90;;;;;;5062824;28;20262;-80
2023/03/06 09:05:39;;;;;;;32.67;19.37;;;3.90;99.90;;;;;;5062601;28;20210;-81
2023/03/06 09:08:05;;;;;;;32.90;18.90;;;3.90;99.90;;;;;;5062450;28;20178;-81
2023/03/06 09:10:30;;;;;;;27.03;15.77;;;3.90;99.90;;;;;;5080622;28;20171;-80
2023/03/06 09:12:56;;;;;;;29.63;16.40;;;3.80;99.90;;;;;;5062657;28;20240;-80
2023/03/06 09:15:23;;;;;;;27.97;15.43;;;3.70;99.90;;;;;;5081078;28;20167;-81
2023/03/06 09:17:49;;;;;;;25.87;15.03;;;3.70;99.90;;;;;;5080798;28;20199;-80
2023/03/06 09:20:16;;;;;;;24.13;14.37;;;3.70;99.90;;;;;;5079959;28;20159;-80
2023/03/06 09:22:42;;;;;;;25.27;14.17;;;3.70;99.90;;;;;;5080627;28;20250;-80
2023/03/06 09:25:09;;;;;;;30.67;16.70;;;3.70;99.90;;;;;;5062813;28;20205;-80
2023/03/06 09:27:35;;;;;;;25.07;15.23;;;3.60;99.90;;;;;;5080417;28;20673;-79
2023/03/06 09:30:00;;;;;;;28.70;16.07;;;3.70;99.90;;;;;;5080853;28;20187;-80
2023/03/06 09:32:26;;;;;;;29.93;17.07;;;3.60;99.90;;;;;;5062925;28;20199;-80
2023/03/06 09:34:51;;;;;;;31.67;17.63;;;3.60;99.90;;;;;;5061197;28;20194;-79
2023/03/06 09:37:17;;;;;;;29.70;17.47;;;3.70;99.90;;;;;;5077244;28;20198;-80
2023/03/06 09:39:43;;;;;;;31.00;18.03;;;3.70;99.90;;;;;;5061443;28;20206;-79
2023/03/06 09:42:15;;;;;;;35.80;19.07;;;3.80;99.90;;;;;;5081407;28;20191;-80
2023/03/06 09:44:50;;;;;;;30.77;18.17;;;3.90;99.90;;;;;;5061594;28;20533;-80
2023/03/06 09:47:31;;;;;;;33.37;19.53;;;3.90;99.90;;;;;;5061358;28;20170;-79
2023/03/06 09:50:22;;;;;;;30.60;17.20;;;3.90;99.90;;;;;;5061120;28;20231;-80
2023/03/06 09:53:15;;;;;;;34.10;18.27;;;4.00;99.90;;;;;;5078595;28;20178;-79
2023/03/06 09:55:44;;;;;;;33.63;18.73;;;4.00;99.90;;;;;;5077978;28;20171;-79
2023/03/06 09:58:23;;;;;;;32.97;19.30;;;4.00;99.90;;;;;;5077880;28;20218;-79
2023/03/06 10:01:10;;;;;;;33.70;18.53;;;4.00;99.90;;;;;;5077513;28;20627;-79
2023/03/06 10:04:06;;;;;;;30.43;17.83;;;4.00;99.90;;;;;;5077716;28;20519;-79
2023/03/06 10:06:48;;;;;;;30.23;18.13;;;4.10;99.90;;;;;;5078684;28;20210;-79
2023/03/06 10:09:33;;;;;;;29.20;17.23;;;4.10;99.90;;;;;;5060586;28;20181;-79
2023/03/06 10:12:11;;;;;;;29.43;17.43;;;4.10;99.90;;;;;;5059200;28;20248;-79
2023/03/06 10:14:38;;;;;;;28.57;16.97;;;4.10;99.90;;;;;;5077998;28;20182;-80
2023/03/06 10:17:05;;;;;;;36.57;17.07;;;4.10;99.90;;;;;;5078128;28;20214;-80
2023/03/06 10:19:34;;;;;;;27.77;17.50;;;4.20;99.90;;;;;;5078613;28;20155;-80
2023/03/06 10:22:26;;;;;;;29.90;16.63;;;4.20;99.90;;;;;;5077370;28;20190;-79
2023/03/06 10:25:18;;;;;;;25.73;15.97;;;4.20;99.90;;;;;;5060044;28;20254;-80
2023/03/06 10:27:47;;;;;;;25.73;15.43;;;4.20;99.90;;;;;;5060927;28;20159;-80
2023/03/06 10:30:34;;;;;;;26.40;14.93;;;4.30;99.90;;;;;;5060271;28;20182;-80
2023/03/06 10:33:25;;;;;;;25.00;15.10;;;4.30;99.90;;;;;;5061063;28;20167;-80
2023/03/06 10:35:53;;;;;;;23.50;14.47;;;4.40;99.90;;;;;;5060358;28;20556;-79
2023/03/06 10:38:28;;;;;;;25.27;14.40;;;4.70;99.90;;;;;;5060278;28;20197;-79
2023/03/06 10:41:15;;;;;;;20.90;13.50;;;4.40;99.90;;;;;;5079226;28;20241;-79
2023/03/06 10:44:05;;;;;;;25.07;14.57;;;4.40;99.90;;;;;;5081909;28;20155;-81
2023/03/06 10:46:46;;;;;;;23.30;13.97;;;4.40;99.90;;;;;;5086260;28;20170;-79
2023/03/06 10:49:34;;;;;;;20.87;12.70;;;4.50;99.90;;;;;;5080457;28;20611;-79
2023/03/06 10:52:08;;;;;;;21.90;12.57;;;4.60;99.90;;;;;;5077179;28;20207;-79
2023/03/06 10:54:37;;;;;;;19.93;11.53;;;4.70;99.90;;;;;;5059605;28;20178;-80
2023/03/06 10:57:28;;;;;;;19.17;11.33;;;4.80;99.90;;;;;;5059440;28;20715;-79
2023/03/06 11:00:00;;;;;;;20.07;12.03;;;4.90;99.90;;;;;;5059967;28;20539;-80
2023/03/06 11:02:38;;;;;;;18.43;11.87;;;4.90;99.90;;;;;;5078164;28;20210;-79
2023/03/06 11:05:05;;;;;;;17.23;10.87;;;5.00;99.90;;;;;;5079091;28;20144;-80
2023/03/06 11:07:32;;;;;;;19.43;12.10;;;4.90;99.90;;;;;;5060258;28;20185;-80
2023/03/06 11:10:03;;;;;;;20.87;11.40;;;5.00;99.90;;;;;;5060182;28;20270;-80
2023/03/06 11:12:31;;;;;;;18.90;11.33;;;5.10;99.90;;;;;;5059879;28;20230;-79
2023/03/06 11:15:26;;;;;;;16.70;9.97;;;5.20;99.90;;;;;;5080100;28;20171;-78
2023/03/06 11:17:53;;;;;;;15.37;9.77;;;5.30;99.90;;;;;;5058161;28;20245;-79
2023/03/06 11:20:25;;;;;;;17.87;10.13;;;5.40;99.90;;;;;;5060712;28;20202;-79
2023/03/06 11:23:01;;;;;;;20.13;10.13;;;5.40;99.90;;;;;;5060806;28;20175;-81
2023/03/06 11:25:33;;;;;;;16.23;10.60;;;5.50;99.90;;;;;;5079174;28;20209;-79
2023/03/06 11:28:11;;;;;;;16.10;9.90;;;5.70;99.90;;;;;;5061133;28;20266;-79
2023/03/06 11:30:43;;;;;;;18.77;10.37;;;5.70;99.90;;;;;;5060990;28;20222;-79
2023/03/06 11:33:24;;;;;;;12.57;8.20;;;5.70;99.90;;;;;;5079370;28;20165;-79
2023/03/06 11:35:56;;;;;;;21.53;9.50;;;5.80;99.90;;;;;;5060955;28;20488;-79
2023/03/06 11:38:34;;;;;;;16.57;10.63;;;5.70;99.90;;;;;;5079197;28;20179;-79
2023/03/06 11:41:05;;;;;;;20.23;10.93;;;5.80;99.90;;;;;;5079729;28;20682;-80
2023/03/06 11:43:45;;;;;;;17.90;10.53;;;5.90;99.90;;;;;;5062519;28;20191;-80
2023/03/06 11:46:58;;;;;;;15.40;9.87;;;6.00;99.90;;;;;;5080341;28;20154;-79
2023/03/06 11:49:44;;;;;;;15.23;10.33;;;6.00;99.90;;;;;;4992309;28;20185;-79
2023/03/06 11:52:20;;;;;;;19.10;11.17;;;5.90;99.90;;;;;;5080284;28;20210;-80
2023/03/06 11:54:53;;;;;;;18.90;11.60;;;6.00;99.90;;;;;;5061174;28;20512;-80
2023/03/06 11:57:24;;;;;;;16.20;11.40;;;6.20;99.90;;;;;;5060540;28;20565;-79
2023/03/06 11:59:56;;;;;;;18.57;11.33;;;6.20;99.90;;;;;;5062025;28;20183;-79
2023/03/06 12:02:38;;;;;;;16.87;10.13;;;6.50;99.90;;;;;;5065228;28;20263;-80
2023/03/06 12:05:32;;;;;;;15.10;9.37;;;6.40;99.90;;;;;;5066131;28;20159;-79
2023/03/06 12:08:21;;;;;;;13.67;7.67;;;6.40;99.90;;;;;;5082660;28;20178;-79
2023/03/06 12:11:16;;;;;;;15.70;9.03;;;6.30;99.90;;;;;;5073443;28;20249;-80
2023/03/06 12:13:53;;;;;;;13.97;9.20;;;6.20;99.90;;;;;;5085018;28;20159;-79
2023/03/06 12:16:46;;;;;;;11.57;7.03;;;6.20;99.90;;;;;;5085888;28;20245;-80
2023/03/06 12:19:20;;;;;;;13.63;8.13;;;6.20;99.90;;;;;;5091344;28;20278;-79
2023/03/06 12:21:50;;;;;;;11.83;7.40;;;6.20;99.90;;;;;;5096290;28;20186;-79
2023/03/06 12:24:32;;;;;;;10.33;6.50;;;6.20;99.90;;;;;;5077171;28;20163;-80
2023/03/06 12:27:11;;;;;;;9.17;6.40;;;6.30;1.00;;;;;;5065447;28;20159;-80
2023/03/06 12:29:40;;;;;;;8.13;5.07;;;6.50;99.90;;;;;;5082082;28;20743;-80
2023/03/06 12:32:13;;;;;;;9.20;4.97;;;6.60;1.00;;;;;;5081345;28;20194;-81
2023/03/06 12:34:57;;;;;;;8.13;5.13;;;6.70;99.90;;;;;;5064865;28;20169;-80
2023/03/06 12:37:39;;;;;;;8.20;4.73;;;7.10;99.90;;;;;;5083321;28;20222;-80
2023/03/06 12:40:24;;;;;;;7.27;4.57;;;6.90;99.90;;;;;;5066097;28;20159;-80
2023/03/06 12:43:09;;;;;;;7.40;5.07;;;6.90;99.90;;;;;;5081643;28;20170;-80
2023/03/06 12:45:37;;;;;;;7.10;4.67;;;7.70;99.90;;;;;;5082348;28;20163;-82
2023/03/06 12:48:10;;;;;;;5.27;3.73;;;7.10;99.90;;;;;;5081820;28;20253;-81
2023/03/06 12:50:35;;;;;;;8.30;3.60;;;7.20;99.90;;;;;;5063217;28;20244;-81